Time;durP1;ratioP1;P1;durP2;ratioP2;P2;SDS_P1;SDS_P2;PMS_P1;PMS_P2;Temp;Humidity;BMP_temperature;BMP_pressure;BME280_temperature;BME280_humidity;BME280_pressure;Samples;Min_cycle;Max_cycle;Signal;HPM_P1;HPM_P2
2021/09/30 00:00:14;;;;;;;2.40;0.68;;;;;;;11.51;75.82;101270.25;5086198;28;20036;-78
2021/09/30 00:02:41;;;;;;;3.80;0.97;;;;;;;11.55;75.71;101260.06;5087506;28;20040;-78
2021/09/30 00:05:10;;;;;;;5.28;1.02;;;;;;;11.58;75.84;101256.63;5088312;28;20048;-77
2021/09/30 00:07:38;;;;;;;4.43;1.10;;;;;;;11.61;75.64;101242.09;5086058;28;20602;-78
2021/09/30 00:10:07;;;;;;;4.50;0.45;;;;;;;11.63;75.95;101239.78;5087106;28;20040;-78
2021/09/30 00:12:39;;;;;;;2.63;0.60;;;;;;;11.63;76.42;101228.69;5087540;28;20042;-78
2021/09/30 00:15:11;;;;;;;4.25;1.13;;;;;;;11.67;76.23;101228.81;5088884;28;20082;-78
2021/09/30 00:34:16;;;;;;;4.97;0.70;;;;;;;11.70;77.32;101185.75;5086591;28;20043;-79
2021/09/30 00:39:58;;;;;;;4.00;0.85;;;;;;;11.68;77.73;101160.28;5084699;28;20059;-78
2021/09/30 00:45:24;;;;;;;4.32;0.82;;;;;;;11.68;77.83;101146.41;5086931;28;20043;-79
2021/09/30 00:51:43;;;;;;;2.22;0.57;;;;;;;11.57;78.04;101132.97;5022462;28;20441;-79
2021/09/30 00:54:05;;;;;;;2.03;0.65;;;;;;;11.60;78.22;101128.72;5060031;28;20091;-78
2021/09/30 02:58:59;;;;;;;5.32;0.38;;;;;;;12.18;83.48;100744.50;5088215;28;20123;-77
2021/09/30 03:01:28;;;;;;;3.13;0.22;;;;;;;12.20;83.61;100736.66;5090980;28;20079;-77
2021/09/30 03:03:57;;;;;;;0.95;0.20;;;;;;;12.23;83.76;100725.63;5087060;28;20041;-78
2021/09/30 03:06:26;;;;;;;0.30;0.10;;;;;;;12.29;83.82;100717.84;5086200;28;20040;-78
2021/09/30 03:08:57;;;;;;;0.35;0.10;;;;;;;12.36;84.00;100717.25;5087426;28;20422;-77
2021/09/30 03:11:25;;;;;;;1.30;0.03;;;;;;;12.39;84.03;100695.09;5086526;28;20492;-77
2021/09/30 03:13:55;;;;;;;1.23;0.00;;;;;;;12.49;83.72;100705.69;5086404;28;20040;-77
2021/09/30 03:16:36;;;;;;;1.45;0.15;;;;;;;12.58;83.77;100695.19;5090751;28;20135;-77
2021/09/30 03:19:18;;;;;;;0.65;0.03;;;;;;;12.67;83.57;100686.66;5088354;28;20050;-77
2021/09/30 03:24:32;;;;;;;1.75;0.00;;;;;;;12.85;83.52;100679.56;5085106;28;20138;-78
2021/09/30 03:27:01;;;;;;;0.70;0.10;;;;;;;12.93;83.46;100674.97;5087005;28;20064;-78
2021/09/30 03:29:29;;;;;;;2.10;0.10;;;;;;;12.99;83.75;100673.53;5089786;28;20039;-77
2021/09/30 03:31:57;;;;;;;0.77;0.20;;;;;;;13.01;83.51;100660.88;5086460;28;20424;-76
2021/09/30 03:34:25;;;;;;;1.08;0.28;;;;;;;13.05;83.48;100656.19;5088739;28;20059;-77
2021/09/30 03:36:52;;;;;;;2.60;0.20;;;;;;;13.10;83.18;100646.81;5086941;28;20066;-77
2021/09/30 03:39:24;;;;;;;1.52;0.28;;;;;;;13.13;83.62;100640.53;5088728;28;20059;-78
2021/09/30 03:41:53;;;;;;;0.55;0.50;;;;;;;13.16;83.59;100634.19;5086476;28;20044;-77
2021/09/30 03:44:21;;;;;;;0.60;0.20;;;;;;;13.20;83.94;100630.34;5100846;28;20028;-77
2021/09/30 03:46:52;;;;;;;0.40;0.20;;;;;;;13.21;83.87;100620.03;5085726;28;20658;-77
2021/09/30 03:49:24;;;;;;;1.63;0.30;;;;;;;13.25;83.73;100620.91;5088215;28;20044;-78
2021/09/30 03:57:21;;;;;;;2.53;0.52;;;;;;;13.35;83.75;100607.22;5089935;28;20036;-78
2021/09/30 03:59:48;;;;;;;0.20;0.10;;;;;;;13.38;83.75;100602.91;5087265;28;20048;-77
2021/09/30 04:02:15;;;;;;;1.00;0.20;;;;;;;13.39;84.09;100605.31;5087440;28;20051;-77
2021/09/30 04:04:43;;;;;;;0.22;0.10;;;;;;;13.43;84.18;100588.69;5087848;28;20495;-77
2021/09/30 04:07:09;;;;;;;0.47;0.10;;;;;;;13.50;84.10;100588.84;5087288;28;20044;-77
2021/09/30 04:09:38;;;;;;;1.77;0.43;;;;;;;13.54;84.06;100578.56;5084771;28;20048;-77
2021/09/30 04:12:08;;;;;;;2.35;0.17;;;;;;;13.58;84.14;100568.31;5064545;28;20056;-77
2021/09/30 04:14:35;;;;;;;2.80;0.77;;;;;;;13.61;83.76;100575.91;5088422;28;20089;-77
2021/09/30 04:17:03;;;;;;;0.63;0.20;;;;;;;13.62;84.00;100566.41;5087339;28;20054;-77
2021/09/30 04:19:29;;;;;;;2.83;0.30;;;;;;;13.65;84.12;100562.88;5086470;28;20549;-77
2021/09/30 04:21:57;;;;;;;1.13;0.20;;;;;;;13.66;83.75;100570.03;5086693;28;20050;-77
2021/09/30 04:24:24;;;;;;;0.95;0.30;;;;;;;13.69;84.28;100557.38;5084378;28;20048;-77
2021/09/30 04:26:52;;;;;;;0.45;0.15;;;;;;;13.70;84.43;100548.66;5088739;28;20028;-77
2021/09/30 04:29:19;;;;;;;0.60;0.10;;;;;;;13.73;84.54;100541.56;5086093;28;20055;-77
2021/09/30 04:31:46;;;;;;;0.38;0.10;;;;;;;13.74;84.51;100530.03;5088224;28;20048;-77
2021/09/30 04:34:13;;;;;;;0.65;0.13;;;;;;;13.77;84.83;100520.16;5087773;28;20044;-77
2021/09/30 04:36:40;;;;;;;0.95;0.40;;;;;;;13.77;84.28;100515.38;5084985;28;20052;-78
2021/09/30 04:39:07;;;;;;;0.75;0.10;;;;;;;13.79;85.16;100523.38;5085581;28;20131;-77
2021/09/30 04:41:34;;;;;;;0.98;0.28;;;;;;;13.83;84.87;100518.66;5087560;28;20863;-77
2021/09/30 04:44:00;;;;;;;0.47;0.10;;;;;;;13.82;85.06;100506.72;5085940;28;20055;-77
2021/09/30 04:46:27;;;;;;;3.13;0.22;;;;;;;13.83;85.37;100491.66;5086788;28;20788;-77
2021/09/30 04:48:54;;;;;;;0.52;0.10;;;;;;;13.83;85.12;100497.22;5086620;28;20070;-77
2021/09/30 04:51:21;;;;;;;2.78;0.17;;;;;;;13.89;85.06;100506.06;5088086;28;20515;-77
2021/09/30 04:53:48;;;;;;;1.15;0.13;;;;;;;13.90;84.90;100499.28;5085725;28;20040;-77
2021/09/30 04:56:15;;;;;;;0.80;0.25;;;;;;;13.91;84.86;100490.59;5086725;28;20608;-77
2021/09/30 04:58:43;;;;;;;0.65;0.30;;;;;;;13.91;85.34;100487.81;5084567;28;20032;-77
2021/09/30 05:01:10;;;;;;;1.30;0.10;;;;;;;13.96;85.11;100495.03;5084631;28;20044;-77
2021/09/30 05:03:37;;;;;;;1.75;0.20;;;;;;;13.97;85.07;100474.38;5087055;28;20107;-76
2021/09/30 05:06:04;;;;;;;1.02;0.75;;;;;;;13.99;85.10;100483.94;5086403;28;20063;-77
2021/09/30 05:08:34;;;;;;;0.88;0.15;;;;;;;14.00;85.29;100479.97;5085228;28;20681;-77
2021/09/30 05:11:03;;;;;;;0.80;0.10;;;;;;;14.02;85.60;100483.22;5085056;28;20491;-77
2021/09/30 05:13:41;;;;;;;2.90;0.20;;;;;;;14.05;85.35;100478.88;5085782;28;20036;-77
2021/09/30 05:16:11;;;;;;;2.08;0.10;;;;;;;14.08;85.33;100482.88;5088375;28;20044;-77
2021/09/30 05:18:49;;;;;;;2.15;0.17;;;;;;;14.09;85.25;100453.84;5068376;28;20504;-77
2021/09/30 05:21:16;;;;;;;0.38;0.10;;;;;;;14.13;85.57;100466.66;5084230;28;20066;-77
2021/09/30 05:23:43;;;;;;;0.75;0.00;;;;;;;14.16;85.45;100459.53;5083353;28;20059;-77
2021/09/30 05:26:09;;;;;;;3.20;0.20;;;;;;;14.18;85.31;100448.81;5085454;28;20047;-77
2021/09/30 05:28:36;;;;;;;0.00;0.00;;;;;;;14.19;85.39;100448.44;5082709;28;20067;-77
2021/09/30 05:31:04;;;;;;;0.40;0.08;;;;;;;14.21;85.63;100451.66;5083704;28;20028;-77
2021/09/30 05:33:32;;;;;;;1.95;0.10;;;;;;;14.24;85.80;100441.75;5083992;28;20044;-78
2021/09/30 05:35:59;;;;;;;0.38;0.17;;;;;;;14.27;85.52;100450.13;5086890;28;20036;-78
2021/09/30 05:38:26;;;;;;;0.22;0.10;;;;;;;14.29;86.05;100441.44;5087916;28;20134;-78
2021/09/30 05:40:54;;;;;;;0.60;0.20;;;;;;;14.33;85.88;100442.28;5085421;28;20040;-78
2021/09/30 05:43:28;;;;;;;2.00;0.45;;;;;;;14.36;85.79;100433.19;5086035;28;20040;-78
2021/09/30 05:45:56;;;;;;;0.10;0.08;;;;;;;14.38;85.64;100433.59;5086085;28;20040;-78
2021/09/30 05:48:24;;;;;;;1.05;0.30;;;;;;;14.40;85.97;100434.06;5083043;28;20040;-78
2021/09/30 05:50:52;;;;;;;0.17;0.10;;;;;;;14.41;86.02;100433.66;5081433;28;20503;-78
2021/09/30 05:53:19;;;;;;;1.20;0.20;;;;;;;14.43;85.94;100434.06;5083436;28;20450;-78
2021/09/30 05:55:46;;;;;;;1.17;0.20;;;;;;;14.44;86.30;100438.47;5084420;28;20050;-78
2021/09/30 05:58:13;;;;;;;1.55;0.15;;;;;;;14.48;86.18;100424.59;5087877;28;20101;-77
2021/09/30 06:11:43;;;;;;;1.27;0.35;;;;;;;14.51;86.00;100391.19;5085270;28;20036;-77
2021/09/30 06:14:20;;;;;;;0.70;0.30;;;;;;;14.52;86.14;100400.38;5087199;28;20089;-77
2021/09/30 06:16:50;;;;;;;0.13;0.13;;;;;;;14.54;86.13;100403.56;5087248;28;20051;-78
2021/09/30 06:19:28;;;;;;;0.82;0.20;;;;;;;14.54;86.21;100396.00;5086838;28;20123;-78
2021/09/30 06:21:56;;;;;;;1.27;0.20;;;;;;;14.56;86.30;100396.44;5086074;28;20044;-77
2021/09/30 06:24:23;;;;;;;1.92;0.15;;;;;;;14.60;86.45;100393.69;5083426;28;20035;-77
2021/09/30 06:26:50;;;;;;;0.82;0.40;;;;;;;14.62;86.16;100394.91;5087438;28;20119;-77
2021/09/30 06:29:17;;;;;;;0.22;0.10;;;;;;;14.63;86.23;100385.38;5084023;28;20048;-77
2021/09/30 06:31:44;;;;;;;1.27;0.40;;;;;;;14.67;86.16;100385.41;5086138;28;20032;-78
2021/09/30 06:34:11;;;;;;;2.17;0.32;;;;;;;14.69;85.96;100387.81;5086136;28;20050;-78
2021/09/30 06:36:38;;;;;;;1.40;0.20;;;;;;;14.71;85.87;100386.25;5089574;28;20123;-79
2021/09/30 06:39:06;;;;;;;1.08;0.10;;;;;;;14.74;85.84;100390.28;5088148;28;20056;-78
2021/09/30 06:41:33;;;;;;;2.58;0.10;;;;;;;14.75;85.96;100387.09;5088767;28;20055;-78
2021/09/30 06:44:16;;;;;;;4.90;0.43;;;;;;;14.77;85.79;100384.75;5089984;28;20071;-78
2021/09/30 06:46:43;;;;;;;0.25;0.10;;;;;;;14.80;85.89;100388.75;5090299;28;20089;-77
2021/09/30 06:49:09;;;;;;;0.35;0.20;;;;;;;14.84;85.71;100378.44;5087136;28;20044;-77
2021/09/30 06:51:36;;;;;;;0.20;0.17;;;;;;;14.86;85.67;100390.78;5092136;28;20403;-78
2021/09/30 06:54:03;;;;;;;2.95;0.20;;;;;;;14.88;85.60;100380.06;5087683;28;20054;-78
2021/09/30 06:56:31;;;;;;;0.20;0.13;;;;;;;14.94;85.48;100377.72;5085518;28;20043;-78
2021/09/30 06:59:07;;;;;;;1.15;0.17;;;;;;;14.98;85.42;100376.59;5088547;28;20063;-78
2021/09/30 07:01:37;;;;;;;0.85;0.30;;;;;;;15.00;85.43;100377.00;5087717;28;20040;-78
2021/09/30 07:04:06;;;;;;;0.63;0.28;;;;;;;15.04;85.03;100388.16;5087975;28;20043;-78
2021/09/30 07:06:33;;;;;;;1.83;0.50;;;;;;;15.07;84.79;100373.47;5087270;28;20044;-78
2021/09/30 07:09:00;;;;;;;3.00;0.20;;;;;;;15.08;84.75;100373.09;5064962;28;20044;-78
2021/09/30 07:11:26;;;;;;;0.30;0.10;;;;;;;15.09;84.68;100374.69;5086382;28;20050;-78
2021/09/30 07:13:53;;;;;;;0.30;0.20;;;;;;;15.12;84.64;100370.31;5087281;28;20479;-78
2021/09/30 07:16:20;;;;;;;2.80;0.52;;;;;;;15.14;84.71;100374.31;5088157;28;20043;-78
2021/09/30 07:18:47;;;;;;;0.00;0.00;;;;;;;15.15;84.52;100362.00;5089623;28;20036;-78
2021/09/30 07:21:14;;;;;;;2.97;0.77;;;;;;;15.18;84.43;100379.94;5088241;28;20140;-79
2021/09/30 07:23:44;;;;;;;0.45;0.10;;;;;;;15.19;84.48;100370.41;5090142;28;20071;-78
2021/09/30 07:26:10;;;;;;;0.28;0.10;;;;;;;15.20;84.38;100375.59;5088975;28;20051;-79
2021/09/30 07:28:39;;;;;;;0.10;0.05;;;;;;;15.20;84.40;100374.78;5086827;28;20488;-78
2021/09/30 07:31:07;;;;;;;0.75;0.10;;;;;;;15.20;84.55;100374.78;5086833;28;20044;-79
2021/09/30 07:33:35;;;;;;;1.45;0.30;;;;;;;15.19;84.70;100385.16;5087290;28;20044;-79
2021/09/30 07:36:01;;;;;;;0.60;0.20;;;;;;;15.16;84.86;100385.91;5086600;28;20058;-78
2021/09/30 07:38:28;;;;;;;0.52;0.20;;;;;;;15.08;85.41;100367.53;5086759;28;20109;-79
2021/09/30 07:40:58;;;;;;;0.70;0.30;;;;;;;15.05;85.97;100362.72;5086993;28;20039;-80
2021/09/30 07:43:25;;;;;;;0.20;0.10;;;;;;;15.04;85.70;100366.66;5088721;28;20040;-81
2021/09/30 07:45:51;;;;;;;1.20;0.20;;;;;;;15.04;85.75;100368.66;5088012;28;20518;-79
2021/09/30 07:48:18;;;;;;;1.98;0.30;;;;;;;15.02;86.18;100363.47;5087966;28;20032;-80
2021/09/30 07:50:46;;;;;;;0.93;0.40;;;;;;;15.03;86.35;100364.28;5067106;28;20048;-80
2021/09/30 07:53:14;;;;;;;1.27;0.13;;;;;;;15.03;86.41;100365.09;5069640;28;20475;-80
2021/09/30 07:55:42;;;;;;;1.23;1.08;;;;;;;15.06;86.92;100367.09;5085861;28;20071;-79
2021/09/30 07:58:09;;;;;;;1.75;0.22;;;;;;;15.08;86.58;100364.75;5067170;28;20397;-79
2021/09/30 08:00:38;;;;;;;1.10;0.32;;;;;;;15.10;86.66;100367.94;5087469;28;20119;-80
2021/09/30 08:03:06;;;;;;;1.27;0.20;;;;;;;15.14;86.51;100357.59;5090378;28;20044;-80
2021/09/30 08:05:35;;;;;;;4.47;1.85;;;;;;;15.18;86.44;100375.19;5088148;28;20032;-79
2021/09/30 08:08:03;;;;;;;0.85;0.20;;;;;;;15.23;86.25;100368.44;5087943;28;20121;-80
2021/09/30 08:10:30;;;;;;;0.40;0.10;;;;;;;15.25;85.82;100358.50;5087325;28;20498;-79
2021/09/30 08:12:57;;;;;;;1.10;0.40;;;;;;;15.30;85.42;100362.13;5084656;28;20066;-80
2021/09/30 08:15:24;;;;;;;0.52;0.20;;;;;;;15.37;85.37;100367.75;5089942;28;20055;-79
2021/09/30 08:17:51;;;;;;;2.42;0.73;;;;;;;15.41;85.13;100371.38;5081026;28;20089;-80
2021/09/30 08:20:19;;;;;;;1.27;0.22;;;;;;;15.45;84.80;100372.19;5088505;28;20040;-80
2021/09/30 08:22:47;;;;;;;0.85;0.10;;;;;;;15.49;84.66;100365.47;5085577;28;20047;-80
2021/09/30 08:25:14;;;;;;;0.52;0.10;;;;;;;15.51;84.37;100363.13;5090360;28;20160;-79
2021/09/30 08:27:41;;;;;;;1.40;0.10;;;;;;;15.55;84.28;100371.50;5086579;28;20410;-79
2021/09/30 08:30:08;;;;;;;2.03;0.28;;;;;;;15.56;84.22;100361.97;5085682;28;20044;-80
2021/09/30 08:32:36;;;;;;;1.65;0.40;;;;;;;15.58;84.10;100359.56;5088337;28;20123;-80
2021/09/30 08:35:04;;;;;;;0.70;0.13;;;;;;;15.60;84.07;100354.41;5085868;28;20047;-80
2021/09/30 08:37:32;;;;;;;0.52;0.10;;;;;;;15.62;83.75;100357.63;5088006;28;20042;-80
2021/09/30 08:39:59;;;;;;;1.70;0.43;;;;;;;15.63;83.65;100357.22;5087572;28;20075;-79
2021/09/30 08:42:27;;;;;;;2.33;0.30;;;;;;;15.65;83.55;100346.47;5084807;28;20419;-80
2021/09/30 08:44:54;;;;;;;2.78;0.30;;;;;;;15.68;83.42;100339.31;5086857;28;20076;-80
2021/09/30 08:47:22;;;;;;;0.98;0.30;;;;;;;15.70;83.08;100356.47;5087329;28;20050;-80
2021/09/30 08:49:48;;;;;;;0.75;0.20;;;;;;;15.70;83.02;100360.06;5087699;28;20050;-80
2021/09/30 08:52:15;;;;;;;0.55;0.05;;;;;;;15.74;82.74;100354.50;5086586;28;20058;-79
2021/09/30 08:54:46;;;;;;;1.20;0.30;;;;;;;15.78;82.70;100355.31;5085400;28;20140;-80
2021/09/30 08:57:13;;;;;;;2.30;0.20;;;;;;;15.82;82.48;100358.94;5087077;28;20075;-80
2021/09/30 08:59:40;;;;;;;2.15;0.22;;;;;;;15.85;82.23;100355.38;5088142;28;20044;-80
2021/09/30 09:02:13;;;;;;;0.80;0.20;;;;;;;15.86;81.95;100351.38;5085237;28;20079;-80
2021/09/30 09:04:58;;;;;;;1.13;0.40;;;;;;;15.86;81.65;100351.38;5087180;28;20050;-79
2021/09/30 09:07:27;;;;;;;0.55;0.55;;;;;;;15.87;81.66;100350.19;5102662;28;20044;-80
2021/09/30 09:09:56;;;;;;;0.70;0.25;;;;;;;15.87;81.56;100358.56;5087240;28;20079;-80
2021/09/30 09:12:23;;;;;;;1.30;0.13;;;;;;;15.89;81.70;100361.75;5087827;28;20847;-79
2021/09/30 09:14:50;;;;;;;1.83;0.20;;;;;;;15.91;81.65;100370.56;5086142;28;20642;-80
2021/09/30 09:17:18;;;;;;;1.65;0.17;;;;;;;15.91;81.53;100370.56;5086484;28;20040;-80
2021/09/30 09:19:45;;;;;;;0.30;0.20;;;;;;;15.96;81.30;100375.78;5085346;28;20036;-80
2021/09/30 09:22:16;;;;;;;1.65;0.10;;;;;;;15.97;80.88;100374.56;5086836;28;20051;-80
2021/09/30 09:25:02;;;;;;;2.90;0.70;;;;;;;15.97;80.58;100370.97;5085589;28;20040;-80
2021/09/30 09:27:45;;;;;;;1.95;0.65;;;;;;;15.96;80.45;100367.41;5086150;28;20040;-80
2021/09/30 09:30:38;;;;;;;1.85;0.40;;;;;;;15.98;80.43;100369.78;5067828;28;20125;-80
2021/09/30 09:33:24;;;;;;;1.58;0.32;;;;;;;16.00;79.95;100368.22;5075588;28;20056;-80
2021/09/30 09:36:06;;;;;;;0.52;0.20;;;;;;;15.99;80.10;100366.59;5087301;28;20036;-80
2021/09/30 09:38:45;;;;;;;3.50;0.73;;;;;;;15.99;80.11;100371.41;5085875;28;20066;-80
2021/09/30 09:41:33;;;;;;;0.57;0.30;;;;;;;16.01;80.05;100364.25;5086901;28;20048;-80
2021/09/30 09:44:00;;;;;;;1.48;0.20;;;;;;;16.10;79.96;100358.28;5086887;28;20036;-80
2021/09/30 09:46:30;;;;;;;1.75;0.38;;;;;;;16.22;79.56;100358.75;5086634;28;20048;-80
2021/09/30 09:49:00;;;;;;;4.47;0.40;;;;;;;16.34;79.10;100361.19;5086724;28;20046;-80
2021/09/30 09:51:43;;;;;;;5.00;0.38;;;;;;;16.44;78.47;100354.06;5086233;28;20517;-80
2021/09/30 09:54:13;;;;;;;3.63;0.50;;;;;;;16.49;78.50;100350.06;5066440;28;20044;-80
2021/09/30 09:56:41;;;;;;;2.30;0.60;;;;;;;16.55;78.06;100354.13;5084781;28;20156;-80
2021/09/30 09:59:08;;;;;;;1.80;0.40;;;;;;;16.55;78.09;100354.88;5085480;28;20058;-80
2021/09/30 10:01:45;;;;;;;3.42;0.60;;;;;;;16.48;77.41;100366.03;5085490;28;20127;-80
2021/09/30 10:04:13;;;;;;;1.25;0.40;;;;;;;16.42;77.19;100360.00;5085324;28;20043;-80
2021/09/30 10:06:41;;;;;;;2.30;0.25;;;;;;;16.38;77.09;100361.22;5087459;28;20040;-80
2021/09/30 10:09:09;;;;;;;2.75;0.57;;;;;;;16.34;76.96;100366.78;5083778;28;20075;-80
2021/09/30 10:11:36;;;;;;;2.83;0.50;;;;;;;16.26;76.70;100367.13;5082433;28;20044;-80
2021/09/30 10:14:05;;;;;;;5.25;1.70;;;;;;;16.19;76.55;100359.53;5087242;28;20043;-80
2021/09/30 10:16:34;;;;;;;4.20;0.85;;;;;;;16.12;76.53;100365.09;5085461;28;20040;-80
2021/09/30 10:19:07;;;;;;;4.47;0.80;;;;;;;16.12;76.37;100351.13;5088010;28;20070;-81
2021/09/30 10:21:36;;;;;;;4.05;0.60;;;;;;;16.13;76.46;100358.31;5085340;28;20050;-79
2021/09/30 10:24:06;;;;;;;6.78;0.80;;;;;;;16.12;75.89;100336.38;5085437;28;20059;-80
2021/09/30 10:26:48;;;;;;;3.22;0.65;;;;;;;16.12;75.61;100341.94;5079103;28;20044;-80
2021/09/30 10:29:34;;;;;;;;;;;;;;;16.07;75.61;100351.47;5084968;28;20571;-80
2021/09/30 10:32:02;;;;;;;4.25;0.80;;;;;;;16.12;75.92;100341.94;5079515;28;19926;-79
2021/09/30 10:34:32;;;;;;;1.98;0.80;;;;;;;16.10;76.07;100339.53;5087083;28;20111;-80
2021/09/30 10:37:25;;;;;;;2.72;0.50;;;;;;;16.05;75.37;100339.91;5087258;28;20511;-80
2021/09/30 10:40:10;;;;;;;5.20;1.65;;;;;;;16.07;75.84;100334.72;5084894;28;20036;-80
2021/09/30 10:42:45;;;;;;;2.15;0.70;;;;;;;16.03;75.83;100336.72;5084215;28;20400;-79
2021/09/30 10:45:14;;;;;;;5.20;1.05;;;;;;;16.01;75.75;100341.91;5082625;28;20051;-80
2021/09/30 10:47:42;;;;;;;5.40;1.13;;;;;;;15.93;75.58;100317.91;5084329;28;20484;-80
2021/09/30 10:50:17;;;;;;;5.35;0.50;;;;;;;15.94;75.54;100333.47;5086590;28;20044;-80
2021/09/30 10:52:54;;;;;;;1.38;0.70;;;;;;;15.96;75.77;100328.31;5084780;28;20754;-79
2021/09/30 10:55:21;;;;;;;4.93;0.75;;;;;;;15.95;75.41;100323.91;5085709;28;20067;-80
2021/09/30 10:57:56;;;;;;;7.63;0.80;;;;;;;15.94;75.62;100321.53;5086121;28;20044;-80
2021/09/30 11:00:23;;;;;;;3.72;0.45;;;;;;;15.93;75.62;100334.69;5085770;28;20054;-80
2021/09/30 11:03:00;;;;;;;3.65;0.80;;;;;;;15.89;75.49;100347.81;5084517;28;20090;-79
2021/09/30 11:05:31;;;;;;;3.83;0.40;;;;;;;15.80;75.80;100358.53;5085457;28;20052;-80
2021/09/30 11:08:24;;;;;;;16.70;1.88;;;;;;;15.64;77.23;100369.19;5086116;28;20089;-79
2021/09/30 11:13:32;;;;;;;7.97;1.80;;;;;;;15.12;77.79;100365.56;5084981;28;20056;-80
2021/09/30 11:15:58;;;;;;;12.05;2.45;;;;;;;14.94;77.83;100367.38;5055956;28;20499;-80
2021/09/30 11:18:46;;;;;;;17.10;1.80;;;;;;;14.87;78.04;100367.31;5067776;28;20404;-80
2021/09/30 11:21:31;;;;;;;9.52;2.13;;;;;;;14.89;78.59;100353.78;5086770;28;20044;-80
2021/09/30 11:24:05;;;;;;;8.45;1.40;;;;;;;14.89;77.79;100353.78;5089073;28;20043;-80
2021/09/30 11:26:55;;;;;;;14.23;1.98;;;;;;;14.97;78.80;100358.25;5089695;28;20048;-80
2021/09/30 11:29:25;;;;;;;26.05;4.82;;;;;;;15.11;78.09;100352.81;5082181;28;20055;-80
2021/09/30 11:31:58;;;;;;;10.02;2.10;;;;;;;15.24;78.22;100354.13;5086185;28;20047;-80
2021/09/30 11:34:35;;;;;;;7.90;1.98;;;;;;;15.32;78.21;100359.75;5087909;28;20105;-80
2021/09/30 11:37:17;;;;;;;12.73;2.45;;;;;;;15.45;77.65;100353.47;5088158;28;21854;-79
2021/09/30 11:39:49;;;;;;;16.48;3.40;;;;;;;15.58;77.65;100351.19;5084770;28;20052;-79
2021/09/30 11:42:21;;;;;;;9.73;1.92;;;;;;;15.60;76.65;100355.19;5085928;28;20054;-79
2021/09/30 11:44:58;;;;;;;17.15;3.85;;;;;;;15.60;76.45;100352.41;5088880;28;20036;-79
2021/09/30 11:47:27;;;;;;;9.30;2.45;;;;;;;15.60;76.60;100346.03;5072024;28;20556;-79
2021/09/30 11:49:54;;;;;;;16.48;4.22;;;;;;;15.60;76.34;100348.81;5087459;28;20086;-79
2021/09/30 11:52:20;;;;;;;25.70;4.88;;;;;;;15.49;75.89;100356.34;5089874;28;20050;-79
2021/09/30 11:54:47;;;;;;;16.17;2.47;;;;;;;15.34;75.60;100352.59;5087013;28;20381;-79
2021/09/30 11:57:25;;;;;;;13.27;2.38;;;;;;;15.29;75.84;100346.56;5089283;28;20121;-79
2021/09/30 12:00:08;;;;;;;13.25;2.95;;;;;;;15.23;75.73;100338.56;5086540;28;20040;-79
2021/09/30 12:02:35;;;;;;;11.63;3.70;;;;;;;15.19;75.74;100339.72;5071055;28;20051;-79
2021/09/30 12:05:03;;;;;;;14.20;4.18;;;;;;;15.19;75.99;100340.53;5087041;28;20047;-79
2021/09/30 12:07:30;;;;;;;11.63;2.50;;;;;;;15.20;75.89;100347.69;5086526;28;20039;-79
2021/09/30 12:09:59;;;;;;;15.52;3.10;;;;;;;15.15;75.66;100338.88;5085696;28;20119;-79
2021/09/30 12:12:31;;;;;;;15.63;2.67;;;;;;;15.14;75.67;100332.50;5087618;28;20488;-79
2021/09/30 12:14:59;;;;;;;19.08;4.13;;;;;;;15.13;75.59;100328.13;5087692;28;20052;-79
2021/09/30 12:17:31;;;;;;;10.73;1.85;;;;;;;15.07;75.77;100320.50;5085674;28;20068;-79
2021/09/30 12:19:57;;;;;;;;;;;;;;;14.99;75.55;100330.78;5087748;28;20051;-79
2021/09/30 12:22:27;;;;;;;7.30;1.00;;;;;;;14.97;75.67;100333.16;5087742;28;20549;-79
2021/09/30 12:24:59;;;;;;;13.90;1.95;;;;;;;15.00;75.58;100324.03;5088564;28;20050;-79
2021/09/30 12:27:33;;;;;;;6.68;1.60;;;;;;;15.05;75.81;100328.44;5088003;28;20052;-79
2021/09/30 12:30:21;;;;;;;8.15;1.10;;;;;;;15.13;75.61;100314.19;5085440;28;20071;-79
2021/09/30 12:32:53;;;;;;;8.43;1.70;;;;;;;15.22;75.53;100311.84;5085542;28;20062;-79
2021/09/30 12:35:23;;;;;;;10.05;2.10;;;;;;;15.38;75.38;100308.78;5086451;28;20499;-79
2021/09/30 12:37:55;;;;;;;11.07;3.38;;;;;;;15.56;75.30;100311.72;5070536;28;20063;-78
2021/09/30 12:40:27;;;;;;;8.07;1.92;;;;;;;15.67;74.09;100309.81;5083539;28;20048;-79
2021/09/30 12:43:00;;;;;;;10.13;1.65;;;;;;;15.77;74.26;100309.06;5085797;28;20040;-79
2021/09/30 12:45:28;;;;;;;7.00;1.67;;;;;;;15.89;74.03;100310.69;5086611;28;20040;-79
2021/09/30 12:48:11;;;;;;;12.48;2.20;;;;;;;15.96;73.56;100317.16;5088404;28;20051;-79
2021/09/30 12:50:46;;;;;;;11.75;1.55;;;;;;;15.99;73.37;100305.16;5086017;28;20055;-79
2021/09/30 12:53:14;;;;;;;5.40;2.10;;;;;;;16.04;73.49;100306.81;5089387;28;20140;-79
2021/09/30 12:55:41;;;;;;;7.15;1.50;;;;;;;16.08;73.25;100304.81;5087115;28;20040;-79
2021/09/30 12:58:27;;;;;;;7.82;1.75;;;;;;;16.16;72.99;100312.84;5086899;28;20043;-79
2021/09/30 13:00:56;;;;;;;7.53;1.83;;;;;;;16.25;73.22;100312.47;5086209;28;20503;-79
2021/09/30 13:03:25;;;;;;;13.60;2.08;;;;;;;16.32;73.29;100309.69;5086815;28;20047;-79
2021/09/30 13:05:55;;;;;;;7.38;1.63;;;;;;;16.37;73.34;100309.31;5083969;28;20044;-79
2021/09/30 13:08:39;;;;;;;12.30;2.60;;;;;;;16.37;72.75;100307.31;5086017;28;20111;-79
2021/09/30 13:11:30;;;;;;;7.60;1.60;;;;;;;16.39;72.15;100304.13;5080774;28;20088;-78
2021/09/30 13:14:16;;;;;;;12.93;1.70;;;;;;;16.35;71.90;100292.94;5083369;28;20063;-79
2021/09/30 13:16:46;;;;;;;6.70;1.30;;;;;;;16.33;72.36;100298.13;5095650;28;20040;-80
2021/09/30 13:19:14;;;;;;;12.35;2.72;;;;;;;16.37;72.41;100287.75;5083671;28;20055;-79
2021/09/30 13:22:02;;;;;;;9.30;1.80;;;;;;;16.36;71.60;100271.41;5084640;28;21254;-78
2021/09/30 13:24:32;;;;;;;11.80;2.30;;;;;;;16.36;72.10;100272.19;5082301;28;20051;-79
2021/09/30 13:27:00;;;;;;;15.18;2.50;;;;;;;16.35;72.14;100276.19;5087723;28;20040;-79
2021/09/30 13:29:40;;;;;;;9.25;2.33;;;;;;;16.33;71.90;100273.00;5086010;28;20051;-79
2021/09/30 13:32:07;;;;;;;10.50;2.17;;;;;;;16.28;72.04;100290.13;5084911;28;20040;-79
2021/09/30 13:34:34;;;;;;;11.65;2.20;;;;;;;16.22;71.62;100280.53;5086655;28;20131;-80
2021/09/30 13:37:02;;;;;;;12.43;2.90;;;;;;;16.08;71.62;100265.72;5087104;28;20058;-82
2021/09/30 13:39:29;;;;;;;20.20;2.40;;;;;;;15.99;71.32;100268.88;5086654;28;20062;-79
2021/09/30 13:41:55;;;;;;;17.85;3.22;;;;;;;15.95;71.27;100270.88;5086506;28;20048;-79
2021/09/30 13:44:23;;;;;;;11.07;2.42;;;;;;;15.93;71.08;100267.66;5081842;28;20058;-79
2021/09/30 13:46:50;;;;;;;10.70;2.40;;;;;;;15.94;70.88;100266.47;5084396;28;20048;-79
2021/09/30 13:49:18;;;;;;;12.13;2.33;;;;;;;15.87;70.69;100260.84;5086569;28;20033;-79
2021/09/30 13:51:45;;;;;;;8.82;2.47;;;;;;;15.86;70.76;100262.03;5086281;28;20050;-79
2021/09/30 13:54:12;;;;;;;15.80;3.92;;;;;;;15.87;70.87;100269.22;5086349;28;21522;-79
2021/09/30 13:56:39;;;;;;;13.05;2.70;;;;;;;15.88;70.53;100264.44;5086408;28;20048;-79
2021/09/30 13:59:06;;;;;;;16.00;3.13;;;;;;;15.89;70.63;100243.69;5084249;28;20265;-79
2021/09/30 14:01:53;;;;;;;13.82;2.58;;;;;;;15.92;70.47;100245.72;5085582;28;20063;-79
2021/09/30 14:04:19;;;;;;;17.52;3.22;;;;;;;15.90;70.67;100234.94;5086466;28;20545;-79
2021/09/30 14:06:48;;;;;;;11.50;3.40;;;;;;;15.99;70.79;100237.38;5085834;28;20044;-79
2021/09/30 14:09:16;;;;;;;13.93;3.17;;;;;;;16.00;70.94;100234.19;5086142;28;20071;-79
2021/09/30 14:11:43;;;;;;;13.98;3.10;;;;;;;16.03;70.77;100233.41;5085400;28;20073;-79
2021/09/30 14:14:10;;;;;;;11.07;2.35;;;;;;;16.05;70.56;100236.59;5085614;28;20071;-79
2021/09/30 14:16:37;;;;;;;12.70;2.63;;;;;;;16.06;70.39;100243.78;5085973;28;20479;-79
2021/09/30 14:19:04;;;;;;;14.05;3.05;;;;;;;16.09;70.18;100243.00;5087124;28;20074;-79
2021/09/30 14:21:30;;;;;;;9.35;2.70;;;;;;;16.11;69.89;100232.22;5086590;28;20126;-79
2021/09/30 14:23:57;;;;;;;15.70;3.72;;;;;;;16.10;69.49;100235.41;5087054;28;20044;-79
2021/09/30 14:26:24;;;;;;;20.92;3.10;;;;;;;16.13;69.64;100232.63;5085703;28;20802;-79
2021/09/30 14:28:51;;;;;;;10.93;2.20;;;;;;;16.12;69.57;100225.47;5084197;28;20043;-79